sensor_id;sensor_type;location;lat;lon;timestamp;temperature;humidity
9265;DHT22;4669;49.594;10.958;2023-04-15T04:25:39;7.70;99.90
9265;DHT22;4669;49.594;10.958;2023-04-15T04:30:41;7.70;99.90
9265;DHT22;4669;49.594;10.958;2023-04-15T04:35:43;7.80;99.90
9265;DHT22;4669;49.594;10.958;2023-04-15T04:40:46;7.80;99.90
9265;DHT22;4669;49.594;10.958;2023-04-15T04:45:49;7.80;99.90
9265;DHT22;4669;49.594;10.958;2023-04-15T04:50:51;7.80;99.90
9265;DHT22;4669;49.594;10.958;2023-04-15T04:55:54;7.90;99.90
9265;DHT22;4669;49.594;10.958;2023-04-15T05:00:56;7.80;99.90
9265;DHT22;4669;49.594;10.958;2023-04-15T05:05:59;7.80;99.90
9265;DHT22;4669;49.594;10.958;2023-04-15T05:11:04;7.80;99.90
9265;DHT22;4669;49.594;10.958;2023-04-15T05:16:06;7.90;99.90
9265;DHT22;4669;49.594;10.958;2023-04-15T05:21:09;7.90;99.90
9265;DHT22;4669;49.594;10.958;2023-04-15T05:26:12;8.00;99.90
9265;DHT22;4669;49.594;10.958;2023-04-15T05:31:14;8.00;99.90
9265;DHT22;4669;49.594;10.958;2023-04-15T05:36:16;8.10;99.90
9265;DHT22;4669;49.594;10.958;2023-04-15T05:41:20;8.10;99.90
9265;DHT22;4669;49.594;10.958;2023-04-15T05:46:22;8.10;99.90
9265;DHT22;4669;49.594;10.958;2023-04-15T05:51:24;8.20;99.90
9265;DHT22;4669;49.594;10.958;2023-04-15T05:56:28;8.20;99.90
9265;DHT22;4669;49.594;10.958;2023-04-15T06:01:30;8.20;99.90
9265;DHT22;4669;49.594;10.958;2023-04-15T06:06:32;8.20;99.90
9265;DHT22;4669;49.594;10.958;2023-04-15T06:11:36;8.20;99.90
9265;DHT22;4669;49.594;10.958;2023-04-15T06:16:38;8.20;99.90
9265;DHT22;4669;49.594;10.958;2023-04-15T06:21:40;8.20;99.90
9265;DHT22;4669;49.594;10.958;2023-04-15T06:26:43;8.20;99.90
9265;DHT22;4669;49.594;10.958;2023-04-15T06:31:46;8.10;99.90
9265;DHT22;4669;49.594;10.958;2023-04-15T06:36:48;8.20;99.90
9265;DHT22;4669;49.594;10.958;2023-04-15T06:41:52;8.20;99.90
9265;DHT22;4669;49.594;10.958;2023-04-15T06:46:55;8.20;99.90
9265;DHT22;4669;49.594;10.958;2023-04-15T06:51:57;8.20;99.90
9265;DHT22;4669;49.594;10.958;2023-04-15T06:57:01;8.20;99.90
9265;DHT22;4669;49.594;10.958;2023-04-15T07:02:03;8.20;99.90
9265;DHT22;4669;49.594;10.958;2023-04-15T07:07:05;8.40;99.90
9265;DHT22;4669;49.594;10.958;2023-04-15T07:12:09;8.50;99.90
9265;DHT22;4669;49.594;10.958;2023-04-15T07:17:11;8.70;99.90
9265;DHT22;4669;49.594;10.958;2023-04-15T07:22:13;8.60;99.90
9265;DHT22;4669;49.594;10.958;2023-04-15T07:27:17;8.60;99.90
9265;DHT22;4669;49.594;10.958;2023-04-15T07:32:19;8.70;99.90
9265;DHT22;4669;49.594;10.958;2023-04-15T07:37:21;8.70;99.90
9265;DHT22;4669;49.594;10.958;2023-04-15T07:42:24;8.80;99.90
9265;DHT22;4669;49.594;10.958;2023-04-15T07:47:27;8.80;99.90
9265;DHT22;4669;49.594;10.958;2023-04-15T07:52:29;8.70;99.90
9265;DHT22;4669;49.594;10.958;2023-04-15T07:57:33;8.70;99.90
9265;DHT22;4669;49.594;10.958;2023-04-15T08:02:36;8.70;99.90
9265;DHT22;4669;49.594;10.958;2023-04-15T08:07:38;8.70;99.90
9265;DHT22;4669;49.594;10.958;2023-04-15T08:12:41;8.80;99.90
9265;DHT22;4669;49.594;10.958;2023-04-15T08:17:43;8.80;99.90
9265;DHT22;4669;49.594;10.958;2023-04-15T08:22:46;8.70;99.90
9265;DHT22;4669;49.594;10.958;2023-04-15T08:27:54;8.50;99.90
9265;DHT22;4669;49.594;10.958;2023-04-15T08:32:57;8.40;99.90
9265;DHT22;4669;49.594;10.958;2023-04-15T08:37:59;8.40;99.90
9265;DHT22;4669;49.594;10.958;2023-04-15T08:43:03;8.20;99.90
9265;DHT22;4669;49.594;10.958;2023-04-15T08:48:06;8.30;99.90
9265;DHT22;4669;49.594;10.958;2023-04-15T08:53:11;8.40;99.90
9265;DHT22;4669;49.594;10.958;2023-04-15T08:58:15;8.30;99.90
9265;DHT22;4669;49.594;10.958;2023-04-15T09:03:19;8.20;99.90
9265;DHT22;4669;49.594;10.958;2023-04-15T09:08:23;8.10;99.90
9265;DHT22;4669;49.594;10.958;2023-04-15T09:13:26;8.10;99.90
9265;DHT22;4669;49.594;10.958;2023-04-15T09:18:30;8.10;99.90
9265;DHT22;4669;49.594;10.958;2023-04-15T09:23:32;8.10;99.90
9265;DHT22;4669;49.594;10.958;2023-04-15T09:28:42;8.10;99.90
9265;DHT22;4669;49.594;10.958;2023-04-15T09:33:54;8.20;99.90
9265;DHT22;4669;49.594;10.958;2023-04-15T09:38:58;8.20;99.90
9265;DHT22;4669;49.594;10.958;2023-04-15T09:44:01;8.20;99.90
9265;DHT22;4669;49.594;10.958;2023-04-15T09:49:07;8.20;99.90
9265;DHT22;4669;49.594;10.958;2023-04-15T09:54:09;8.20;99.90
9265;DHT22;4669;49.594;10.958;2023-04-15T09:59:12;8.10;99.90
9265;DHT22;4669;49.594;10.958;2023-04-15T10:04:15;8.10;99.90
9265;DHT22;4669;49.594;10.958;2023-04-15T10:09:17;8.00;99.90
9265;DHT22;4669;49.594;10.958;2023-04-15T10:14:21;8.10;99.90
9265;DHT22;4669;49.594;10.958;2023-04-15T10:19:26;8.00;99.90
9265;DHT22;4669;49.594;10.958;2023-04-15T10:24:32;8.10;99.90
9265;DHT22;4669;49.594;10.958;2023-04-15T10:29:36;8.20;99.90
9265;DHT22;4669;49.594;10.958;2023-04-15T10:34:39;8.30;99.90
9265;DHT22;4669;49.594;10.958;2023-04-15T10:39:42;8.40;99.90
9265;DHT22;4669;49.594;10.958;2023-04-15T10:44:48;8.40;99.90
9265;DHT22;4669;49.594;10.958;2023-04-15T10:49:56;8.80;99.90
9265;DHT22;4669;49.594;10.958;2023-04-15T10:55:02;9.00;99.90
9265;DHT22;4669;49.594;10.958;2023-04-15T11:00:14;9.10;99.90
9265;DHT22;4669;49.594;10.958;2023-04-15T11:05:19;9.20;99.90
9265;DHT22;4669;49.594;10.958;2023-04-15T11:10:49;8.90;99.90
9265;DHT22;4669;49.594;10.958;2023-04-15T11:15:57;8.80;99.90
9265;DHT22;4669;49.594;10.958;2023-04-15T11:21:03;8.70;99.90
9265;DHT22;4669;49.594;10.958;2023-04-15T11:26:07;8.80;99.90
9265;DHT22;4669;49.594;10.958;2023-04-15T11:31:14;8.90;99.90
9265;DHT22;4669;49.594;10.958;2023-04-15T11:36:17;8.90;99.90
9265;DHT22;4669;49.594;10.958;2023-04-15T11:41:20;8.80;99.90
9265;DHT22;4669;49.594;10.958;2023-04-15T11:46:29;8.70;99.90
9265;DHT22;4669;49.594;10.958;2023-04-15T11:51:32;8.80;99.90
9265;DHT22;4669;49.594;10.958;2023-04-15T11:56:35;8.80;99.90
9265;DHT22;4669;49.594;10.958;2023-04-15T12:01:38;8.80;99.90
9265;DHT22;4669;49.594;10.958;2023-04-15T12:06:42;8.90;99.90
9265;DHT22;4669;49.594;10.958;2023-04-15T12:11:45;9.00;99.90
9265;DHT22;4669;49.594;10.958;2023-04-15T12:16:50;8.90;99.90
9265;DHT22;4669;49.594;10.958;2023-04-15T12:21:57;9.00;99.90
9265;DHT22;4669;49.594;10.958;2023-04-15T12:27:04;9.10;99.90
9265;DHT22;4669;49.594;10.958;2023-04-15T12:32:09;9.30;99.90
9265;DHT22;4669;49.594;10.958;2023-04-15T12:37:12;9.20;99.90
9265;DHT22;4669;49.594;10.958;2023-04-15T12:42:14;9.00;99.90
9265;DHT22;4669;49.594;10.958;2023-04-15T12:47:18;9.00;99.90
9265;DHT22;4669;49.594;10.958;2023-04-15T12:52:20;9.00;99.90
9265;DHT22;4669;49.594;10.958;2023-04-15T12:57:24;9.10;99.90
9265;DHT22;4669;49.594;10.958;2023-04-15T13:02:27;9.10;99.90
9265;DHT22;4669;49.594;10.958;2023-04-15T13:07:29;9.10;99.90
9265;DHT22;4669;49.594;10.958;2023-04-15T13:12:32;9.20;99.90
9265;DHT22;4669;49.594;10.958;2023-04-15T13:17:37;9.30;99.90
9265;DHT22;4669;49.594;10.958;2023-04-15T13:22:39;9.40;99.90
9265;DHT22;4669;49.594;10.958;2023-04-15T13:27:42;9.40;99.90
9265;DHT22;4669;49.594;10.958;2023-04-15T13:32:45;9.40;99.90
9265;DHT22;4669;49.594;10.958;2023-04-15T13:37:47;9.40;99.90
9265;DHT22;4669;49.594;10.958;2023-04-15T13:42:50;9.40;99.90
9265;DHT22;4669;49.594;10.958;2023-04-15T13:47:54;9.20;99.90
9265;DHT22;4669;49.594;10.958;2023-04-15T13:52:56;9.10;99.90
9265;DHT22;4669;49.594;10.958;2023-04-15T13:57:58;9.10;99.90
9265;DHT22;4669;49.594;10.958;2023-04-15T14:03:02;9.00;99.90
9265;DHT22;4669;49.594;10.958;2023-04-15T14:08:04;8.90;99.90
9265;DHT22;4669;49.594;10.958;2023-04-15T14:13:06;8.90;99.90
9265;DHT22;4669;49.594;10.958;2023-04-15T14:18:10;9.00;99.90
9265;DHT22;4669;49.594;10.958;2023-04-15T14:23:12;9.00;99.90
9265;DHT22;4669;49.594;10.958;2023-04-15T14:28:14;9.00;99.90
9265;DHT22;4669;49.594;10.958;2023-04-15T14:33:18;9.00;99.90
9265;DHT22;4669;49.594;10.958;2023-04-15T14:38:20;9.00;99.90
9265;DHT22;4669;49.594;10.958;2023-04-15T14:43:22;9.00;99.90
9265;DHT22;4669;49.594;10.958;2023-04-15T14:48:26;9.00;99.90
9265;DHT22;4669;49.594;10.958;2023-04-15T14:53:28;9.10;99.90
9265;DHT22;4669;49.594;10.958;2023-04-15T14:58:30;9.10;99.90
9265;DHT22;4669;49.594;10.958;2023-04-15T15:03:34;9.10;99.90
9265;DHT22;4669;49.594;10.958;2023-04-15T15:08:36;9.00;99.90
9265;DHT22;4669;49.594;10.958;2023-04-15T15:13:38;9.00;99.90
9265;DHT22;4669;49.594;10.958;2023-04-15T15:18:42;8.90;99.90
9265;DHT22;4669;49.594;10.958;2023-04-15T15:23:44;8.90;99.90
9265;DHT22;4669;49.594;10.958;2023-04-15T15:28:48;8.80;99.90
9265;DHT22;4669;49.594;10.958;2023-04-15T15:33:51;8.70;99.90
9265;DHT22;4669;49.594;10.958;2023-04-15T15:38:53;8.70;99.90
9265;DHT22;4669;49.594;10.958;2023-04-15T15:43:56;8.70;99.90
9265;DHT22;4669;49.594;10.958;2023-04-15T15:49:01;8.60;99.90
9265;DHT22;4669;49.594;10.958;2023-04-15T15:54:03;8.60;99.90
9265;DHT22;4669;49.594;10.958;2023-04-15T15:59:05;8.50;99.90
9265;DHT22;4669;49.594;10.958;2023-04-15T16:04:09;8.40;99.90
9265;DHT22;4669;49.594;10.958;2023-04-15T16:09:11;8.40;99.90
9265;DHT22;4669;49.594;10.958;2023-04-15T16:14:13;8.50;99.90
9265;DHT22;4669;49.594;10.958;2023-04-15T16:19:17;8.50;99.90
9265;DHT22;4669;49.594;10.958;2023-04-15T16:24:19;8.60;99.90
9265;DHT22;4669;49.594;10.958;2023-04-15T16:29:21;8.70;99.90
9265;DHT22;4669;49.594;10.958;2023-04-15T16:34:24;8.80;99.90
9265;DHT22;4669;49.594;10.958;2023-04-15T16:39:26;8.80;99.90
9265;DHT22;4669;49.594;10.958;2023-04-15T16:44:29;8.80;99.90
9265;DHT22;4669;49.594;10.958;2023-04-15T16:49:32;8.80;99.90
9265;DHT22;4669;49.594;10.958;2023-04-15T16:54:36;8.80;99.90
9265;DHT22;4669;49.594;10.958;2023-04-15T16:59:40;8.70;99.90
9265;DHT22;4669;49.594;10.958;2023-04-15T17:04:44;8.80;99.90
9265;DHT22;4669;49.594;10.958;2023-04-15T17:09:46;8.70;99.90
9265;DHT22;4669;49.594;10.958;2023-04-15T17:14:48;8.70;99.90
9265;DHT22;4669;49.594;10.958;2023-04-15T17:19:51;8.70;99.90
9265;DHT22;4669;49.594;10.958;2023-04-15T17:24:53;8.70;99.90
9265;DHT22;4669;49.594;10.958;2023-04-15T17:29:56;8.60;99.90
9265;DHT22;4669;49.594;10.958;2023-04-15T17:35:00;8.60;99.90
9265;DHT22;4669;49.594;10.958;2023-04-15T17:40:02;8.60;99.90
9265;DHT22;4669;49.594;10.958;2023-04-15T17:45:05;8.60;99.90
9265;DHT22;4669;49.594;10.958;2023-04-15T17:50:09;8.60;99.90
9265;DHT22;4669;49.594;10.958;2023-04-15T17:55:11;8.50;99.90
9265;DHT22;4669;49.594;10.958;2023-04-15T18:00:14;8.50;99.90
9265;DHT22;4669;49.594;10.958;2023-04-15T18:05:18;8.50;99.90
9265;DHT22;4669;49.594;10.958;2023-04-15T18:10:20;8.50;99.90
9265;DHT22;4669;49.594;10.958;2023-04-15T18:15:23;8.50;99.90
9265;DHT22;4669;49.594;10.958;2023-04-15T18:20:27;8.40;99.90
9265;DHT22;4669;49.594;10.958;2023-04-15T18:25:30;8.50;99.90
9265;DHT22;4669;49.594;10.958;2023-04-15T18:30:33;8.40;99.90
9265;DHT22;4669;49.594;10.958;2023-04-15T18:35:37;8.50;99.90
9265;DHT22;4669;49.594;10.958;2023-04-15T18:40:42;8.40;99.90
9265;DHT22;4669;49.594;10.958;2023-04-15T18:45:44;8.50;99.90
9265;DHT22;4669;49.594;10.958;2023-04-15T18:50:47;8.50;99.90
9265;DHT22;4669;49.594;10.958;2023-04-15T18:55:53;8.50;99.90
9265;DHT22;4669;49.594;10.958;2023-04-15T19:00:56;8.50;99.90
9265;DHT22;4669;49.594;10.958;2023-04-15T19:06:00;8.40;99.90
9265;DHT22;4669;49.594;10.958;2023-04-15T19:11:02;8.40;99.90
9265;DHT22;4669;49.594;10.958;2023-04-15T19:16:04;8.40;99.90
9265;DHT22;4669;49.594;10.958;2023-04-15T19:21:08;8.40;99.90
9265;DHT22;4669;49.594;10.958;2023-04-15T19:26:11;8.40;99.90
9265;DHT22;4669;49.594;10.958;2023-04-15T19:31:13;8.40;99.90
9265;DHT22;4669;49.594;10.958;2023-04-15T19:36:17;8.40;99.90
9265;DHT22;4669;49.594;10.958;2023-04-15T19:41:19;8.40;99.90
9265;DHT22;4669;49.594;10.958;2023-04-15T19:46:22;8.40;99.90
9265;DHT22;4669;49.594;10.958;2023-04-15T19:51:26;8.40;99.90
9265;DHT22;4669;49.594;10.958;2023-04-15T19:56:28;8.40;99.90
9265;DHT22;4669;49.594;10.958;2023-04-15T20:01:30;8.40;99.90
9265;DHT22;4669;49.594;10.958;2023-04-15T20:06:33;8.40;99.90
9265;DHT22;4669;49.594;10.958;2023-04-15T20:11:35;8.30;99.90
9265;DHT22;4669;49.594;10.958;2023-04-15T20:16:37;8.40;99.90
9265;DHT22;4669;49.594;10.958;2023-04-15T20:21:41;8.40;99.90
9265;DHT22;4669;49.594;10.958;2023-04-15T20:26:43;8.40;99.90
9265;DHT22;4669;49.594;10.958;2023-04-15T20:31:45;8.30;99.90
9265;DHT22;4669;49.594;10.958;2023-04-15T20:36:49;8.40;99.90
9265;DHT22;4669;49.594;10.958;2023-04-15T20:41:51;8.30;99.90
9265;DHT22;4669;49.594;10.958;2023-04-15T20:46:53;8.30;99.90
9265;DHT22;4669;49.594;10.958;2023-04-15T20:51:56;8.40;99.90
9265;DHT22;4669;49.594;10.958;2023-04-15T20:56:59;8.40;99.90
9265;DHT22;4669;49.594;10.958;2023-04-15T21:02:01;8.40;99.90
9265;DHT22;4669;49.594;10.958;2023-04-15T21:07:04;8.40;99.90
9265;DHT22;4669;49.594;10.958;2023-04-15T21:12:06;8.40;99.90
9265;DHT22;4669;49.594;10.958;2023-04-15T21:17:09;8.40;99.90
9265;DHT22;4669;49.594;10.958;2023-04-15T21:22:12;8.40;99.90
9265;DHT22;4669;49.594;10.958;2023-04-15T21:27:14;8.40;99.90
9265;DHT22;4669;49.594;10.958;2023-04-15T21:32:16;8.40;99.90
9265;DHT22;4669;49.594;10.958;2023-04-15T21:37:19;8.40;99.90
9265;DHT22;4669;49.594;10.958;2023-04-15T21:42:22;8.40;99.90
9265;DHT22;4669;49.594;10.958;2023-04-15T21:47:24;8.40;99.90
9265;DHT22;4669;49.594;10.958;2023-04-15T21:52:27;8.40;99.90
9265;DHT22;4669;49.594;10.958;2023-04-15T21:57:29;8.40;99.90
